Time;durP1;ratioP1;P1;durP2;ratioP2;P2;SDS_P1;SDS_P2;PMS_P1;PMS_P2;Temp;Humidity;BMP_temperature;BMP_pressure;BME280_temperature;BME280_humidity;BME280_pressure;Samples;Min_cycle;Max_cycle;Signal;HPM_P1;HPM_P2
2023/09/29 00:00:17;;;;;;;11.23;4.18;;;;;;;;;;4816832;29;20062;-86
2023/09/29 00:03:08;;;;;;;10.27;4.30;;;;;;;;;;4816839;29;20442;-85
2023/09/29 00:05:53;;;;;;;10.00;3.72;;;;;;;;;;4824142;29;20047;-84
2023/09/29 00:08:39;;;;;;;8.48;4.32;;;;;;;;;;4824388;29;20062;-85
2023/09/29 00:11:25;;;;;;;11.43;4.15;;;;;;;;;;4810434;29;20421;-85
2023/09/29 00:14:10;;;;;;;10.40;4.63;;;;;;;;;;4824583;29;20047;-86
2023/09/29 00:16:56;;;;;;;7.82;4.05;;;;;;;;;;4816130;29;20054;-85
2023/09/29 00:19:41;;;;;;;10.02;4.07;;;;;;;;;;4823795;29;20054;-85
2023/09/29 00:22:30;;;;;;;10.43;4.03;;;;;;;;;;4810357;29;20042;-84
2023/09/29 00:25:16;;;;;;;10.95;4.20;;;;;;;;;;4816505;29;20046;-85
2023/09/29 00:28:02;;;;;;;6.85;3.92;;;;;;;;;;4823926;29;20592;-85
2023/09/29 00:30:47;;;;;;;8.05;3.80;;;;;;;;;;4823619;29;20050;-85
2023/09/29 00:33:33;;;;;;;10.02;3.90;;;;;;;;;;4815723;29;20058;-85
2023/09/29 00:36:18;;;;;;;11.43;3.65;;;;;;;;;;4816862;29;20488;-84
2023/09/29 00:39:07;;;;;;;8.23;3.67;;;;;;;;;;4824398;29;20058;-84
2023/09/29 00:41:53;;;;;;;7.18;3.42;;;;;;;;;;4824241;29;20058;-84
2023/09/29 00:44:39;;;;;;;8.63;3.40;;;;;;;;;;4816784;29;20054;-84
2023/09/29 00:47:26;;;;;;;8.35;4.10;;;;;;;;;;4824110;29;20409;-84
2023/09/29 00:50:14;;;;;;;9.68;4.32;;;;;;;;;;4823893;29;20058;-84
2023/09/29 00:53:06;;;;;;;7.80;3.50;;;;;;;;;;4823400;29;20050;-84
2023/09/29 00:55:52;;;;;;;5.40;3.45;;;;;;;;;;4810025;29;20059;-84
2023/09/29 00:58:39;;;;;;;7.05;3.40;;;;;;;;;;4823772;29;20404;-84
2023/09/29 01:01:25;;;;;;;9.18;3.80;;;;;;;;;;4815820;29;20046;-84
2023/09/29 01:04:10;;;;;;;5.47;3.53;;;;;;;;;;4824584;29;20069;-85
2023/09/29 01:06:56;;;;;;;7.85;3.70;;;;;;;;;;4829135;29;20046;-84
2023/09/29 01:09:42;;;;;;;8.25;3.58;;;;;;;;;;4828463;29;20511;-84
2023/09/29 01:12:27;;;;;;;7.05;3.50;;;;;;;;;;4821071;29;20062;-84
2023/09/29 01:15:14;;;;;;;7.35;3.40;;;;;;;;;;4820970;29;20053;-84
2023/09/29 01:18:00;;;;;;;6.55;3.17;;;;;;;;;;4829191;29;20058;-84
2023/09/29 01:20:45;;;;;;;6.10;3.50;;;;;;;;;;4828271;29;20476;-85
2023/09/29 01:23:33;;;;;;;9.68;4.00;;;;;;;;;;4827924;29;20066;-85
2023/09/29 01:26:18;;;;;;;14.77;3.83;;;;;;;;;;4823346;29;20058;-86
2023/09/29 01:29:03;;;;;;;5.90;3.72;;;;;;;;;;4823207;29;20058;-83
2023/09/29 01:31:49;;;;;;;6.47;3.47;;;;;;;;;;4815512;29;20058;-85
2023/09/29 01:34:36;;;;;;;8.68;3.30;;;;;;;;;;4814770;29;20062;-83
2023/09/29 01:37:21;;;;;;;11.50;3.63;;;;;;;;;;4815289;29;20050;-83
2023/09/29 01:40:08;;;;;;;6.78;4.05;;;;;;;;;;4823232;29;20054;-82
2023/09/29 01:42:56;;;;;;;9.68;3.70;;;;;;;;;;4831381;29;20427;-84
2023/09/29 01:45:41;;;;;;;5.97;3.50;;;;;;;;;;4814934;29;20047;-84
2023/09/29 01:48:26;;;;;;;9.60;3.63;;;;;;;;;;4815224;29;20092;-84
2023/09/29 01:51:12;;;;;;;5.80;3.78;;;;;;;;;;4814859;29;20058;-84
2023/09/29 01:53:59;;;;;;;7.75;3.83;;;;;;;;;;4823025;29;20073;-84
2023/09/29 01:56:45;;;;;;;7.88;3.90;;;;;;;;;;4814758;29;20054;-84
2023/09/29 01:59:31;;;;;;;10.13;3.60;;;;;;;;;;4814444;29;20050;-84
2023/09/29 02:02:16;;;;;;;8.52;3.42;;;;;;;;;;4822811;23;20046;-85
2023/09/29 02:05:02;;;;;;;8.70;4.00;;;;;;;;;;4816679;29;20045;-87
2023/09/29 02:07:49;;;;;;;11.50;3.50;;;;;;;;;;4817286;29;20057;-82
2023/09/29 02:10:34;;;;;;;8.93;3.60;;;;;;;;;;4824797;29;20246;-81
2023/09/29 02:13:20;;;;;;;7.88;3.55;;;;;;;;;;4810547;29;20049;-82
2023/09/29 02:16:14;;;;;;;8.30;3.95;;;;;;;;;;4818420;29;20057;-84
2023/09/29 02:19:05;;;;;;;11.20;3.70;;;;;;;;;;4798198;29;20405;-82
2023/09/29 02:21:50;;;;;;;10.45;3.50;;;;;;;;;;4804724;29;20057;-83
2023/09/29 02:24:35;;;;;;;14.15;4.28;;;;;;;;;;4825045;29;20054;-84
2023/09/29 02:27:22;;;;;;;7.82;3.88;;;;;;;;;;4817140;29;20052;-84
2023/09/29 02:30:11;;;;;;;6.20;3.55;;;;;;;;;;4817716;29;20049;-82
2023/09/29 02:32:56;;;;;;;9.65;3.83;;;;;;;;;;4823935;29;20046;-81
2023/09/29 02:35:41;;;;;;;7.97;3.42;;;;;;;;;;4825259;29;20465;-85
2023/09/29 02:38:27;;;;;;;8.73;4.00;;;;;;;;;;4831189;29;20405;-80
2023/09/29 02:41:13;;;;;;;8.02;3.58;;;;;;;;;;4816272;29;20058;-82
2023/09/29 02:43:58;;;;;;;6.45;3.42;;;;;;;;;;4825096;29;20462;-87
2023/09/29 02:46:44;;;;;;;10.07;3.78;;;;;;;;;;4816979;29;20409;-83
2023/09/29 02:49:33;;;;;;;7.55;3.22;;;;;;;;;;4830598;29;20054;-82
2023/09/29 02:52:20;;;;;;;5.78;3.33;;;;;;;;;;4825230;29;20057;-81
2023/09/29 02:55:11;;;;;;;9.20;3.40;;;;;;;;;;4831586;29;20058;-83
2023/09/29 02:57:56;;;;;;;6.43;3.60;;;;;;;;;;4816635;29;20509;-81
2023/09/29 03:00:42;;;;;;;6.00;3.25;;;;;;;;;;4824935;29;20049;-81
2023/09/29 03:03:27;;;;;;;8.00;3.60;;;;;;;;;;4800633;29;20057;-82
2023/09/29 03:06:18;;;;;;;7.88;3.53;;;;;;;;;;4831602;29;20405;-82
2023/09/29 03:09:03;;;;;;;10.63;3.80;;;;;;;;;;4818933;29;20689;-82
2023/09/29 03:11:49;;;;;;;8.57;3.65;;;;;;;;;;4812273;29;20385;-82
2023/09/29 03:14:35;;;;;;;10.55;3.92;;;;;;;;;;4827032;29;20676;-80
2023/09/29 03:17:20;;;;;;;12.38;3.90;;;;;;;;;;4825672;29;20053;-80
2023/09/29 03:20:12;;;;;;;7.53;4.03;;;;;;;;;;4817636;29;20058;-82
2023/09/29 03:23:04;;;;;;;9.35;4.50;;;;;;;;;;4830931;29;20049;-83
2023/09/29 03:25:49;;;;;;;9.27;3.85;;;;;;;;;;4818443;29;20683;-83
2023/09/29 03:28:35;;;;;;;8.02;3.70;;;;;;;;;;4824493;29;20422;-82
2023/09/29 03:31:24;;;;;;;14.50;3.78;;;;;;;;;;4830606;29;20057;-82
2023/09/29 03:34:08;;;;;;;6.53;3.53;;;;;;;;;;4836256;29;20053;-83
2023/09/29 03:36:53;;;;;;;9.77;3.42;;;;;;;;;;4819801;29;20058;-87
2023/09/29 03:39:39;;;;;;;6.93;3.55;;;;;;;;;;4831550;29;20497;-80
2023/09/29 03:42:26;;;;;;;9.82;3.47;;;;;;;;;;4825981;29;20049;-85
2023/09/29 03:45:11;;;;;;;7.93;3.25;;;;;;;;;;4824277;29;20037;-84
2023/09/29 03:47:57;;;;;;;7.82;3.67;;;;;;;;;;4830346;29;20478;-83
2023/09/29 03:50:43;;;;;;;9.40;3.58;;;;;;;;;;4803945;29;20045;-83
2023/09/29 03:53:29;;;;;;;6.85;3.83;;;;;;;;;;4830415;29;20049;-85
2023/09/29 03:56:15;;;;;;;6.32;3.50;;;;;;;;;;4830347;29;20405;-82
2023/09/29 03:59:00;;;;;;;6.10;4.22;;;;;;;;;;4823858;29;20038;-81
2023/09/29 04:01:47;;;;;;;7.78;3.95;;;;;;;;;;4809694;29;20525;-83
2023/09/29 04:04:32;;;;;;;20.02;5.07;;;;;;;;;;4805900;29;20497;-81
2023/09/29 04:07:18;;;;;;;13.63;4.38;;;;;;;;;;4811060;29;20061;-83
2023/09/29 04:10:04;;;;;;;8.30;3.60;;;;;;;;;;4801202;29;20054;-83
2023/09/29 04:12:49;;;;;;;10.45;4.20;;;;;;;;;;4803670;29;20054;-83
2023/09/29 04:15:35;;;;;;;7.75;3.58;;;;;;;;;;4804191;29;20050;-82
2023/09/29 04:18:20;;;;;;;6.53;4.13;;;;;;;;;;4811392;29;20054;-85
2023/09/29 04:21:15;;;;;;;10.02;4.20;;;;;;;;;;4810695;29;20054;-82
2023/09/29 04:24:00;;;;;;;6.38;3.63;;;;;;;;;;4807771;29;20054;-85
2023/09/29 04:26:46;;;;;;;8.77;3.97;;;;;;;;;;4815175;29;20116;-82
2023/09/29 04:29:32;;;;;;;9.63;3.85;;;;;;;;;;4808182;29;20402;-80
2023/09/29 04:32:20;;;;;;;8.15;3.90;;;;;;;;;;4809147;29;20478;-80
2023/09/29 04:35:05;;;;;;;7.97;4.65;;;;;;;;;;4810167;29;20049;-81
2023/09/29 04:37:50;;;;;;;10.50;4.85;;;;;;;;;;4817271;29;20454;-83
2023/09/29 04:40:37;;;;;;;9.30;4.28;;;;;;;;;;4812230;29;20310;-81
2023/09/29 04:43:22;;;;;;;19.95;10.82;;;;;;;;;;4814755;29;20057;-80
2023/09/29 04:46:08;;;;;;;20.35;10.13;;;;;;;;;;4814625;29;20309;-82
2023/09/29 04:48:54;;;;;;;21.85;10.35;;;;;;;;;;4807869;29;20405;-81
2023/09/29 04:51:39;;;;;;;23.15;11.63;;;;;;;;;;4813983;29;20046;-82
2023/09/29 04:54:24;;;;;;;20.63;12.52;;;;;;;;;;4812781;29;20038;-81
2023/09/29 04:57:10;;;;;;;24.20;13.82;;;;;;;;;;4813761;29;20054;-79
2023/09/29 04:59:56;;;;;;;20.50;13.38;;;;;;;;;;4813811;29;20046;-81
2023/09/29 05:02:41;;;;;;;20.13;11.85;;;;;;;;;;4817139;29;20057;-83
2023/09/29 05:05:27;;;;;;;20.17;9.63;;;;;;;;;;4832871;29;21637;-81
2023/09/29 05:08:14;;;;;;;21.23;12.63;;;;;;;;;;4818643;29;20057;-80
2023/09/29 05:11:00;;;;;;;24.25;15.27;;;;;;;;;;4832680;29;20409;-82
2023/09/29 05:13:45;;;;;;;35.35;16.13;;;;;;;;;;4817635;29;20042;-83
2023/09/29 05:16:30;;;;;;;21.83;11.48;;;;;;;;;;4831668;29;20046;-84
2023/09/29 05:19:16;;;;;;;12.70;7.00;;;;;;;;;;4831841;29;20493;-81
2023/09/29 05:22:02;;;;;;;13.27;6.15;;;;;;;;;;4825772;29;20413;-81
2023/09/29 05:24:49;;;;;;;9.10;4.75;;;;;;;;;;4831892;29;20053;-81
2023/09/29 05:27:35;;;;;;;7.72;4.80;;;;;;;;;;4816040;29;20283;-83
2023/09/29 05:30:20;;;;;;;13.60;4.80;;;;;;;;;;4832815;29;20398;-84
2023/09/29 05:33:06;;;;;;;11.63;4.55;;;;;;;;;;4834248;29;20053;-83
2023/09/29 05:35:51;;;;;;;16.17;4.85;;;;;;;;;;4830417;29;20483;-84
2023/09/29 05:38:37;;;;;;;19.67;4.40;;;;;;;;;;4826132;29;20413;-81
2023/09/29 05:41:23;;;;;;;14.35;4.60;;;;;;;;;;4825428;29;20050;-83
2023/09/29 05:44:08;;;;;;;10.20;4.40;;;;;;;;;;4829706;29;20792;-83
2023/09/29 05:46:54;;;;;;;13.75;4.30;;;;;;;;;;4832752;29;20413;-82
2023/09/29 05:49:40;;;;;;;14.63;4.43;;;;;;;;;;4831822;29;20046;-83
2023/09/29 05:52:26;;;;;;;14.10;4.30;;;;;;;;;;4824961;29;20485;-82
2023/09/29 05:55:12;;;;;;;15.82;4.05;;;;;;;;;;4829229;29;20065;-83
2023/09/29 05:57:58;;;;;;;15.43;3.88;;;;;;;;;;4823964;29;20458;-83
2023/09/29 06:00:44;;;;;;;12.50;4.07;;;;;;;;;;4823598;29;20057;-83
2023/09/29 06:03:29;;;;;;;13.85;4.80;;;;;;;;;;4827792;29;20053;-81
2023/09/29 06:06:16;;;;;;;11.00;5.45;;;;;;;;;;4829207;29;20465;-83
2023/09/29 06:09:04;;;;;;;26.92;9.38;;;;;;;;;;4829370;29;20485;-82
2023/09/29 06:11:49;;;;;;;24.15;9.65;;;;;;;;;;4829731;29;20057;-83
2023/09/29 06:14:34;;;;;;;31.02;15.43;;;;;;;;;;4810229;29;20054;-84
2023/09/29 06:17:20;;;;;;;25.67;14.60;;;;;;;;;;4822591;29;20049;-82
2023/09/29 06:20:07;;;;;;;24.55;10.63;;;;;;;;;;4810445;29;20045;-83
2023/09/29 06:22:51;;;;;;;12.10;6.93;;;;;;;;;;4830197;29;20413;-82
2023/09/29 06:25:36;;;;;;;13.05;6.38;;;;;;;;;;4809760;29;20493;-82
2023/09/29 06:28:21;;;;;;;11.95;6.75;;;;;;;;;;4830856;29;20045;-86
2023/09/29 06:31:07;;;;;;;20.90;5.82;;;;;;;;;;4809232;29;20057;-81
2023/09/29 06:33:53;;;;;;;13.25;5.15;;;;;;;;;;4829543;29;20493;-81
2023/09/29 06:36:38;;;;;;;10.15;5.07;;;;;;;;;;4829002;29;20045;-83
2023/09/29 06:39:24;;;;;;;9.23;5.05;;;;;;;;;;4815545;29;20497;-84
2023/09/29 06:42:09;;;;;;;16.05;5.57;;;;;;;;;;4830569;29;20872;-80
2023/09/29 06:44:55;;;;;;;10.68;4.80;;;;;;;;;;4817202;29;20418;-80
2023/09/29 06:47:41;;;;;;;12.23;5.10;;;;;;;;;;4818081;29;20057;-82
2023/09/29 06:50:26;;;;;;;15.30;5.60;;;;;;;;;;4824646;29;20038;-82
2023/09/29 06:53:12;;;;;;;13.18;5.63;;;;;;;;;;4804016;29;20049;-83
2023/09/29 06:55:58;;;;;;;11.15;4.85;;;;;;;;;;4831173;29;20473;-82
2023/09/29 06:58:43;;;;;;;10.68;4.65;;;;;;;;;;4828810;29;20053;-80
2023/09/29 07:01:28;;;;;;;12.45;3.08;;;;;;;;;;4822049;29;20072;-80
2023/09/29 07:04:13;;;;;;;8.30;3.30;;;;;;;;;;4830617;29;20073;-81
2023/09/29 07:06:59;;;;;;;8.43;3.70;;;;;;;;;;4836938;29;20054;-81
2023/09/29 07:09:44;;;;;;;7.60;3.25;;;;;;;;;;4823183;29;20401;-80
2023/09/29 07:12:31;;;;;;;8.10;3.30;;;;;;;;;;4825055;29;20397;-84
2023/09/29 07:15:16;;;;;;;7.40;3.47;;;;;;;;;;4820684;29;20481;-84
2023/09/29 07:18:02;;;;;;;11.80;3.63;;;;;;;;;;4830903;29;20386;-82
2023/09/29 07:20:52;;;;;;;10.95;3.78;;;;;;;;;;4825073;29;20076;-83
2023/09/29 07:23:38;;;;;;;9.27;3.88;;;;;;;;;;4824886;29;20489;-83
2023/09/29 07:26:23;;;;;;;8.00;3.60;;;;;;;;;;4832711;29;20053;-83
2023/09/29 07:29:08;;;;;;;11.65;3.40;;;;;;;;;;4818883;29;20042;-80
2023/09/29 07:31:54;;;;;;;9.48;4.10;;;;;;;;;;4830222;29;20053;-81
2023/09/29 07:34:39;;;;;;;10.18;4.50;;;;;;;;;;4824799;29;20045;-81
2023/09/29 07:37:25;;;;;;;17.40;4.60;;;;;;;;;;4817245;29;20409;-81
2023/09/29 07:40:10;;;;;;;10.20;3.97;;;;;;;;;;4830226;29;20445;-80
2023/09/29 07:42:55;;;;;;;7.18;3.70;;;;;;;;;;4829263;29;20061;-81
2023/09/29 07:45:41;;;;;;;9.38;4.43;;;;;;;;;;4816440;29;20045;-82
2023/09/29 07:48:27;;;;;;;8.85;4.28;;;;;;;;;;4829679;29;20473;-81
2023/09/29 07:51:13;;;;;;;7.53;3.95;;;;;;;;;;4829349;29;20061;-80
2023/09/29 07:54:01;;;;;;;10.43;3.95;;;;;;;;;;4790687;29;20450;-80
2023/09/29 07:56:50;;;;;;;9.15;3.78;;;;;;;;;;4823838;29;20390;-81
2023/09/29 07:59:35;;;;;;;7.35;3.50;;;;;;;;;;4827715;29;20454;-80
2023/09/29 08:02:20;;;;;;;9.82;4.15;;;;;;;;;;4827148;29;20042;-82
2023/09/29 08:05:09;;;;;;;7.65;4.35;;;;;;;;;;4813748;29;20046;-82
2023/09/29 08:07:55;;;;;;;7.43;3.65;;;;;;;;;;4813832;29;20419;-81
2023/09/29 08:10:41;;;;;;;14.18;4.05;;;;;;;;;;4807242;29;20398;-80
2023/09/29 08:13:27;;;;;;;8.00;4.32;;;;;;;;;;4808008;29;20467;-82
2023/09/29 08:16:12;;;;;;;10.45;4.40;;;;;;;;;;4792965;29;20406;-81
2023/09/29 08:22:50;;;;;;;11.35;4.18;;;;;;;;;;4816305;29;20050;-83
2023/09/29 08:25:35;;;;;;;6.00;3.90;;;;;;;;;;4795446;29;20455;-82
2023/09/29 08:28:20;;;;;;;14.25;4.28;;;;;;;;;;4807384;29;20058;-81
2023/09/29 08:31:17;;;;;;;6.50;3.85;;;;;;;;;;4787224;29;20051;-82
2023/09/29 08:34:04;;;;;;;7.63;3.63;;;;;;;;;;4806710;29;20050;-81
2023/09/29 08:36:51;;;;;;;11.98;6.20;;;;;;;;;;4807130;29;20386;-81
2023/09/29 08:39:36;;;;;;;9.10;4.25;;;;;;;;;;4807753;29;20443;-81
2023/09/29 08:42:37;;;;;;;10.23;4.03;;;;;;;;;;4807230;29;20363;-84
2023/09/29 08:45:28;;;;;;;8.77;3.90;;;;;;;;;;4798231;29;20097;-81
2023/09/29 08:48:13;;;;;;;11.93;4.50;;;;;;;;;;4798776;29;20443;-80
2023/09/29 08:51:01;;;;;;;10.35;4.57;;;;;;;;;;4806703;29;20410;-83
2023/09/29 08:53:50;;;;;;;8.85;4.20;;;;;;;;;;4806749;29;20046;-82
2023/09/29 08:56:36;;;;;;;11.68;3.85;;;;;;;;;;4807404;29;20398;-82
2023/09/29 08:59:22;;;;;;;13.95;4.43;;;;;;;;;;4798841;29;20054;-81
2023/09/29 09:02:08;;;;;;;7.75;3.75;;;;;;;;;;4806362;29;20054;-84
2023/09/29 09:04:53;;;;;;;7.78;4.07;;;;;;;;;;4806738;29;20054;-80
2023/09/29 09:07:40;;;;;;;15.13;4.60;;;;;;;;;;4806810;29;20459;-82
2023/09/29 09:10:34;;;;;;;12.95;4.07;;;;;;;;;;4806280;29;20058;-81
2023/09/29 09:13:22;;;;;;;11.27;3.42;;;;;;;;;;4806707;29;20403;-80
2023/09/29 09:16:07;;;;;;;10.13;3.33;;;;;;;;;;4806947;29;20051;-82
2023/09/29 09:18:53;;;;;;;15.23;3.78;;;;;;;;;;4806169;29;20467;-81
2023/09/29 09:21:40;;;;;;;9.48;5.35;;;;;;;;;;4806010;29;20046;-81
2023/09/29 09:24:25;;;;;;;8.20;4.05;;;;;;;;;;4806773;29;20418;-80
2023/09/29 09:27:11;;;;;;;10.20;3.42;;;;;;;;;;4805801;29;20046;-80
2023/09/29 09:29:57;;;;;;;10.75;3.75;;;;;;;;;;4806144;29;20475;-81
2023/09/29 09:32:42;;;;;;;13.63;3.90;;;;;;;;;;4806948;29;20050;-81
2023/09/29 09:35:29;;;;;;;16.38;5.10;;;;;;;;;;4798799;29;20042;-81
2023/09/29 09:38:14;;;;;;;14.52;4.32;;;;;;;;;;4806693;29;20054;-82
2023/09/29 09:41:01;;;;;;;7.63;3.70;;;;;;;;;;4806102;29;20046;-80
2023/09/29 09:43:46;;;;;;;17.27;4.88;;;;;;;;;;4807540;29;20058;-80
2023/09/29 09:46:38;;;;;;;10.13;3.80;;;;;;;;;;4793445;29;20055;-82
2023/09/29 09:49:28;;;;;;;18.98;4.40;;;;;;;;;;4806319;29;20050;-82
2023/09/29 09:52:26;;;;;;;13.80;3.63;;;;;;;;;;4806309;29;20054;-82
2023/09/29 09:55:15;;;;;;;18.33;4.38;;;;;;;;;;4805076;29;20051;-80
2023/09/29 09:58:10;;;;;;;8.73;3.88;;;;;;;;;;4791906;29;20403;-82
2023/09/29 10:00:56;;;;;;;14.40;3.75;;;;;;;;;;4805095;29;20050;-80
2023/09/29 10:03:41;;;;;;;11.25;3.72;;;;;;;;;;4806033;29;20451;-82
2023/09/29 10:06:29;;;;;;;13.68;4.35;;;;;;;;;;4804671;29;20466;-80
2023/09/29 10:09:14;;;;;;;14.65;3.78;;;;;;;;;;4808889;29;20398;-82
2023/09/29 10:12:00;;;;;;;16.15;3.75;;;;;;;;;;4796863;29;20054;-81
2023/09/29 10:14:46;;;;;;;8.75;3.70;;;;;;;;;;4804356;29;20054;-82
2023/09/29 10:17:41;;;;;;;11.93;3.55;;;;;;;;;;4805358;29;20394;-82
2023/09/29 10:20:33;;;;;;;11.73;3.15;;;;;;;;;;4784543;29;20402;-84
2023/09/29 10:23:18;;;;;;;19.35;3.35;;;;;;;;;;4791782;29;20054;-82
2023/09/29 10:26:04;;;;;;;11.25;3.35;;;;;;;;;;4797698;29;20054;-81
2023/09/29 10:29:00;;;;;;;6.40;2.95;;;;;;;;;;4786100;29;20043;-82
2023/09/29 10:31:48;;;;;;;8.15;3.03;;;;;;;;;;4798100;29;20050;-80
2023/09/29 10:34:34;;;;;;;12.00;3.00;;;;;;;;;;4806108;29;20050;-82
2023/09/29 10:37:24;;;;;;;12.65;3.83;;;;;;;;;;4794405;29;20042;-82
2023/09/29 10:40:20;;;;;;;12.60;4.25;;;;;;;;;;4805815;29;20046;-81
2023/09/29 10:43:06;;;;;;;13.90;3.47;;;;;;;;;;4805098;29;20054;-81
2023/09/29 10:45:52;;;;;;;8.40;3.20;;;;;;;;;;4798471;29;20443;-79
2023/09/29 10:48:45;;;;;;;14.43;3.25;;;;;;;;;;4805830;29;20054;-80
2023/09/29 10:51:31;;;;;;;9.68;2.80;;;;;;;;;;4804548;29;20042;-82
2023/09/29 10:54:17;;;;;;;16.27;6.28;;;;;;;;;;4818741;29;20057;-80
2023/09/29 10:57:02;;;;;;;7.70;3.30;;;;;;;;;;4820553;29;20042;-82
2023/09/29 10:59:48;;;;;;;9.52;2.78;;;;;;;;;;4821251;29;20075;-80
2023/09/29 11:02:36;;;;;;;12.63;3.35;;;;;;;;;;4823576;29;20053;-83
2023/09/29 11:05:21;;;;;;;9.52;3.25;;;;;;;;;;4821399;29;20462;-81
2023/09/29 11:08:10;;;;;;;10.50;3.00;;;;;;;;;;4814826;29;20050;-81
2023/09/29 11:11:00;;;;;;;8.57;3.30;;;;;;;;;;4822515;29;20050;-81
2023/09/29 11:13:56;;;;;;;7.80;3.13;;;;;;;;;;4822665;29;20058;-82
2023/09/29 11:16:41;;;;;;;6.70;2.80;;;;;;;;;;4815376;29;20474;-84
2023/09/29 11:19:30;;;;;;;10.13;3.13;;;;;;;;;;4814859;29;20053;-82
2023/09/29 11:22:20;;;;;;;8.25;2.72;;;;;;;;;;4823333;29;20046;-84
2023/09/29 11:25:16;;;;;;;10.48;3.13;;;;;;;;;;4823623;29;20414;-82
2023/09/29 11:28:00;;;;;;;10.07;3.13;;;;;;;;;;4810488;29;20053;-84
2023/09/29 11:30:46;;;;;;;14.02;3.60;;;;;;;;;;4822543;29;20061;-83
2023/09/29 11:33:32;;;;;;;14.80;3.38;;;;;;;;;;4816953;29;20061;-79
2023/09/29 11:36:19;;;;;;;13.77;3.15;;;;;;;;;;4818812;29;20053;-81
2023/09/29 11:39:07;;;;;;;6.80;3.53;;;;;;;;;;4826793;29;20061;-82
2023/09/29 11:41:52;;;;;;;12.70;3.05;;;;;;;;;;4827157;29;20050;-80
2023/09/29 11:44:38;;;;;;;9.90;3.50;;;;;;;;;;4826866;29;20466;-81
2023/09/29 11:47:24;;;;;;;10.73;3.13;;;;;;;;;;4825806;29;20042;-83
2023/09/29 11:50:09;;;;;;;18.23;3.78;;;;;;;;;;4832574;29;20058;-81
2023/09/29 11:52:55;;;;;;;10.10;3.90;;;;;;;;;;4826578;29;20049;-80
2023/09/29 11:55:40;;;;;;;10.27;3.05;;;;;;;;;;4826845;29;20422;-82
2023/09/29 11:58:26;;;;;;;14.70;3.40;;;;;;;;;;4825854;29;20413;-80
2023/09/29 12:01:11;;;;;;;8.13;3.53;;;;;;;;;;4812362;29;20486;-81
2023/09/29 12:03:58;;;;;;;11.43;4.38;;;;;;;;;;4826004;29;20057;-82
2023/09/29 12:06:43;;;;;;;8.55;3.53;;;;;;;;;;4825709;29;20046;-81
2023/09/29 12:09:28;;;;;;;10.20;3.42;;;;;;;;;;4832489;29;20466;-83
2023/09/29 12:12:14;;;;;;;13.10;3.67;;;;;;;;;;4826044;29;20042;-81
2023/09/29 12:14:59;;;;;;;14.25;3.35;;;;;;;;;;4824573;29;20061;-81
2023/09/29 12:17:45;;;;;;;7.18;2.92;;;;;;;;;;4812705;29;20053;-82
2023/09/29 12:20:31;;;;;;;10.88;3.58;;;;;;;;;;4820060;29;20050;-80
2023/09/29 12:23:16;;;;;;;16.15;3.55;;;;;;;;;;4827830;29;20062;-81
2023/09/29 12:26:02;;;;;;;15.07;3.20;;;;;;;;;;4828349;29;20050;-81
2023/09/29 12:28:47;;;;;;;11.80;3.33;;;;;;;;;;4827807;29;20410;-81
2023/09/29 12:31:33;;;;;;;7.88;2.38;;;;;;;;;;4826905;29;20045;-82
2023/09/29 12:34:18;;;;;;;9.15;3.10;;;;;;;;;;4813649;29;20061;-82
2023/09/29 12:37:07;;;;;;;8.38;2.53;;;;;;;;;;4812213;29;20402;-81
2023/09/29 12:39:53;;;;;;;10.98;2.90;;;;;;;;;;4826687;29;20050;-83
2023/09/29 12:42:47;;;;;;;8.40;3.08;;;;;;;;;;4826387;29;20406;-82
2023/09/29 12:45:32;;;;;;;9.70;2.60;;;;;;;;;;4830367;29;20466;-81
2023/09/29 12:48:17;;;;;;;15.13;2.92;;;;;;;;;;4831305;29;20269;-82
2023/09/29 12:51:02;;;;;;;10.80;3.05;;;;;;;;;;4816097;29;20049;-82
2023/09/29 12:53:49;;;;;;;9.73;2.95;;;;;;;;;;4821542;29;20054;-82
2023/09/29 12:56:35;;;;;;;13.20;2.70;;;;;;;;;;4818547;29;20378;-82
2023/09/29 12:59:23;;;;;;;12.23;2.70;;;;;;;;;;4835576;29;20050;-83
2023/09/29 13:02:09;;;;;;;6.03;2.78;;;;;;;;;;4814801;29;20471;-83
2023/09/29 13:04:54;;;;;;;8.52;2.33;;;;;;;;;;4828557;29;20406;-82
2023/09/29 13:07:39;;;;;;;10.15;3.05;;;;;;;;;;4821389;29;20474;-82
2023/09/29 13:10:25;;;;;;;11.65;2.50;;;;;;;;;;4811050;29;20410;-82
2023/09/29 13:13:10;;;;;;;11.68;2.70;;;;;;;;;;4825121;29;20050;-82
2023/09/29 13:15:55;;;;;;;10.73;2.67;;;;;;;;;;4825028;29;20072;-81
2023/09/29 13:18:41;;;;;;;9.70;3.35;;;;;;;;;;4826465;29;20057;-82
2023/09/29 13:21:31;;;;;;;8.95;3.22;;;;;;;;;;4824023;29;20054;-81
2023/09/29 13:24:16;;;;;;;20.30;3.10;;;;;;;;;;4815790;29;20431;-82
2023/09/29 13:27:02;;;;;;;8.15;2.40;;;;;;;;;;4825396;29;20452;-82
2023/09/29 13:29:50;;;;;;;13.40;2.88;;;;;;;;;;4826959;29;20053;-80
2023/09/29 13:32:35;;;;;;;10.45;2.70;;;;;;;;;;4826825;29;20046;-80
2023/09/29 13:35:22;;;;;;;14.30;3.20;;;;;;;;;;4827764;29;20057;-79
2023/09/29 13:38:07;;;;;;;16.73;3.63;;;;;;;;;;4822882;29;20045;-84
2023/09/29 13:40:53;;;;;;;12.73;4.50;;;;;;;;;;4832988;29;20398;-81
2023/09/29 13:43:39;;;;;;;15.77;3.75;;;;;;;;;;4826675;29;20045;-82
2023/09/29 13:46:24;;;;;;;9.00;2.92;;;;;;;;;;4822220;29;20671;-80
2023/09/29 13:49:09;;;;;;;13.90;2.50;;;;;;;;;;4824255;29;20417;-82
2023/09/29 13:51:55;;;;;;;13.43;3.10;;;;;;;;;;4824231;29;20050;-81
2023/09/29 13:54:40;;;;;;;7.15;3.00;;;;;;;;;;4817854;29;20420;-82
2023/09/29 13:57:25;;;;;;;13.32;2.45;;;;;;;;;;4815059;29;20508;-82
2023/09/29 14:00:12;;;;;;;6.45;2.78;;;;;;;;;;4824068;29;20466;-80
2023/09/29 14:02:59;;;;;;;13.38;2.47;;;;;;;;;;4824726;29;20472;-83
2023/09/29 14:05:44;;;;;;;11.18;2.97;;;;;;;;;;4828774;29;20062;-84
2023/09/29 14:08:29;;;;;;;10.93;2.92;;;;;;;;;;4815697;29;20041;-83
2023/09/29 14:11:15;;;;;;;13.32;3.28;;;;;;;;;;4829319;29;20500;-82
2023/09/29 14:14:01;;;;;;;11.35;3.10;;;;;;;;;;4807628;29;20405;-84
2023/09/29 14:16:46;;;;;;;10.77;2.88;;;;;;;;;;4821264;29;20034;-82
2023/09/29 14:19:32;;;;;;;15.00;2.90;;;;;;;;;;4815917;29;20393;-82
2023/09/29 14:22:17;;;;;;;10.63;2.63;;;;;;;;;;4809104;29;20466;-81
2023/09/29 14:25:02;;;;;;;13.63;2.90;;;;;;;;;;4828429;29;20457;-84
2023/09/29 14:27:49;;;;;;;11.68;2.90;;;;;;;;;;4822021;29;20497;-83
2023/09/29 14:30:37;;;;;;;8.77;2.72;;;;;;;;;;4823137;29;20744;-82
2023/09/29 14:33:23;;;;;;;7.03;2.50;;;;;;;;;;4829500;29;20053;-81
2023/09/29 14:36:10;;;;;;;13.35;2.63;;;;;;;;;;4827231;29;20045;-80
2023/09/29 14:38:56;;;;;;;16.65;5.93;;;;;;;;;;4815829;29;20046;-81
2023/09/29 14:41:42;;;;;;;17.73;6.63;;;;;;;;;;4822204;29;20041;-81
2023/09/29 14:44:27;;;;;;;12.15;3.42;;;;;;;;;;4823501;29;20062;-82
2023/09/29 14:47:12;;;;;;;12.20;2.30;;;;;;;;;;4814043;29;20045;-83
2023/09/29 14:49:59;;;;;;;10.57;3.67;;;;;;;;;;4826282;29;20494;-83
2023/09/29 14:52:45;;;;;;;14.23;3.20;;;;;;;;;;4826090;29;20049;-83
2023/09/29 14:55:35;;;;;;;10.95;2.83;;;;;;;;;;4827632;29;20062;-83
2023/09/29 14:58:21;;;;;;;12.43;2.30;;;;;;;;;;4823407;29;20406;-83
2023/09/29 15:01:07;;;;;;;6.32;2.03;;;;;;;;;;4828118;29;20053;-82
2023/09/29 15:03:54;;;;;;;9.60;2.38;;;;;;;;;;4825566;29;20591;-83
2023/09/29 15:06:43;;;;;;;14.63;2.40;;;;;;;;;;4830964;29;20049;-83
2023/09/29 15:09:30;;;;;;;11.20;2.83;;;;;;;;;;4821524;29;20058;-85
2023/09/29 15:12:16;;;;;;;6.75;2.25;;;;;;;;;;4829534;29;20450;-85
2023/09/29 15:15:02;;;;;;;14.40;2.80;;;;;;;;;;4833540;29;20478;-83
2023/09/29 15:17:48;;;;;;;21.23;3.30;;;;;;;;;;4828540;29;20397;-83
2023/09/29 15:20:37;;;;;;;10.25;3.38;;;;;;;;;;4809648;29;20053;-84
2023/09/29 15:23:22;;;;;;;12.68;3.35;;;;;;;;;;4833654;29;20064;-83
2023/09/29 15:26:08;;;;;;;11.13;3.28;;;;;;;;;;4833472;29;20049;-83
2023/09/29 15:28:53;;;;;;;11.70;2.95;;;;;;;;;;4828586;29;20478;-81
2023/09/29 15:31:39;;;;;;;11.85;3.25;;;;;;;;;;4834680;29;20057;-84
2023/09/29 15:34:25;;;;;;;12.63;3.88;;;;;;;;;;4820504;29;20058;-84
2023/09/29 15:37:11;;;;;;;11.40;4.25;;;;;;;;;;4834079;29;20481;-82
2023/09/29 15:39:57;;;;;;;17.42;4.43;;;;;;;;;;4828693;29;20053;-82
2023/09/29 15:42:42;;;;;;;16.52;3.80;;;;;;;;;;4833661;29;20471;-81
2023/09/29 15:45:28;;;;;;;16.30;4.20;;;;;;;;;;4834225;29;20481;-85
2023/09/29 15:48:14;;;;;;;21.17;6.53;;;;;;;;;;4801637;29;20054;-82
2023/09/29 15:50:59;;;;;;;15.02;6.93;;;;;;;;;;4834232;29;20061;-83
2023/09/29 15:53:44;;;;;;;16.75;5.60;;;;;;;;;;4833973;29;20049;-83
2023/09/29 15:56:30;;;;;;;14.20;5.68;;;;;;;;;;4820139;29;20049;-82
2023/09/29 15:59:16;;;;;;;14.40;6.28;;;;;;;;;;4827165;29;20466;-84
2023/09/29 16:02:01;;;;;;;13.18;5.30;;;;;;;;;;4827144;29;20045;-81
2023/09/29 16:04:48;;;;;;;15.57;4.80;;;;;;;;;;4833328;29;20045;-84
2023/09/29 16:07:34;;;;;;;16.58;4.35;;;;;;;;;;4807702;29;20046;-82
2023/09/29 16:10:20;;;;;;;13.02;4.30;;;;;;;;;;4833796;29;20706;-82
2023/09/29 16:13:05;;;;;;;8.35;3.60;;;;;;;;;;4820356;29;20049;-81
2023/09/29 16:15:51;;;;;;;9.40;3.88;;;;;;;;;;4833719;29;20457;-81
2023/09/29 16:18:37;;;;;;;10.43;4.45;;;;;;;;;;4830308;29;20054;-81
2023/09/29 16:21:22;;;;;;;11.90;3.58;;;;;;;;;;4840242;29;20046;-83
2023/09/29 16:24:08;;;;;;;15.63;3.80;;;;;;;;;;4834090;29;20489;-81
2023/09/29 16:26:53;;;;;;;9.48;4.38;;;;;;;;;;4831805;29;20401;-83
2023/09/29 16:29:39;;;;;;;9.55;4.43;;;;;;;;;;4835769;29;20050;-81
2023/09/29 16:32:25;;;;;;;12.20;4.53;;;;;;;;;;4837892;29;20049;-82